YXGO weather

Goondiwindi Hospital Helipad
Goondiwindi, Queensland, Australia

Public forecast

Using degrees Celsius for public forecast. Weather courtesy of forecast.io.

Closest aviation weather report (METAR) to Goondiwindi Hospital Helipad

Closest report is Moree Airport, 61.9 nm (114.7 km) SSW. Retrieved 2020/08/06 17:00 UTC (54 minutes ago):

YMOR 061700Z AUTO 06015KT 9999 // NCD 15/02 Q1013

Closest aviation forecast (TAF) to Goondiwindi Hospital Helipad

Closest forecast is RAAF Base Amberley, 138.8 nm (257.1 km) ENE. Retrieved 2020/08/06 12:00 UTC (6 hours ago):

TAF YAMB 061102Z 0612/0712 14005KT 9999 -SHRA SCT025 BKN040 FM070100 06012KT 9999 -SHRA SCT035 FM070800 VRB05KT 9999 -RA FEW010 BKN020 INTER 0617/0700 4000 SHRA BKN012 INTER 0706/0708 4000 SHRA BKN012 TEMPO 0708/0712 3000 RA BKN010